AirNav   Free Bose QuietComfort 20
 
 921 users online  

AK37 Point Mackenzie Heliport
Point MacKenzie, Alaska, USA

GOING TO POINT MACKENZIE?


FAA INFORMATION EFFECTIVE 05 DECEMBER 2019

Location

FAA Identifier: AK37
Lat/Long: 61-14-58.0250N 150-02-08.0180W
61-14.967083N 150-02.133633W
61.2494514,-150.0355606
(estimated)
Elevation: 72 ft. / 22 m (estimated)
Variation: 25E (1985)
Time zone: UTC -9 (UTC -8 during Daylight Saving Time)
Zip code: 99687

Heliport Operations

Heliport use: Private use. Permission required prior to landing
Activation date: 03/1991
Control tower: no
ARTCC: ANCHORAGE CENTER
FSS: KENAI FLIGHT SERVICE STATION [907-283-7211]
Attendance: UNATNDD
Wind indicator: yes
Segmented circle: no
Lights: OPS CONSLY.

Heliport Communications

CTAF: 122.9
WX ASOS at LHD (4 nm SE): PHONE 907-245-1618
WX ASOS at ANC (5 nm S): PHONE 907-271-5278
WX ASOS at MRI (6 nm E): 124.25 (907-271-5277)
WX ASOS at FRN (11 nm E): 125.0 (907-384-0132)
WX AWOS-3P at BCV (18 nm NE): 135.55 (907-688-0826)

Nearby radio navigation aids

VOR radial/distance  VOR name  Freq  Var
TEDr318/5.4ANCHORAGE VOR/DME113.1518E
BGQr167/19.3BIG LAKE VORTAC112.5019E

 
NDB name  Hdg/Dist  Freq  Var  ID
CAMPBELL LAKE348/4.733816ECMQ -.-. -- --.-

Heliport Services

Runway Information

Helipad H1

Dimensions: 30 x 30 ft. / 9 x 9 m
Surface: turf
Runway edge lights: PERI
Latitude: 61-14.967083N
Longitude: 150-02.133633W
Elevation: 72.0 ft.
Traffic pattern: leftleft

Heliport Ownership and Management from official FAA records

Ownership: Publicly-owned
Owner: CHUGACH ELECTRIC ASSN INC
PO BOX 196300
ANCHORAGE, AK 99519
Phone (907) 762-7644
Manager: BILL BERNIER, VICE PRESIDENT
PO BOX 196300
ANCHORAGE, AK 99519
Phone (907) 762-7644

Additional Remarks

MAY NOT BE CLEARED OF SNOW IN WINTER IMMEDIATELY FOLLOWING A SNOW STORM.

Instrument Procedures

There are no published instrument procedures at AK37.

Some nearby airports with instrument procedures:

PANC - Ted Stevens Anchorage International Airport (5 nm S)
PAMR - Merrill Field Airport (6 nm E)
PAED - Elmendorf Air Force Base (7 nm E)
PAFR - Bryant Army Airfield Heliport (11 nm E)
PAGQ - Big Lake Airport (18 nm N)
 
Loc | Ops | Rwys | IFR | FBO | Links
Com | Nav | Svcs | Stats | Notes

Crowley
 
Area around AK37 (Point Mackenzie Heliport)
 
Road maps at: MapQuest Bing Google
 
Aerial photo
No photo
 
Sectional chart

 
Airport distance calculator
Flying to Point Mackenzie Heliport? Find the distance to fly.

From to AK37

Sunrise and sunset
Times for 12-Dec-2019
 Local
(UTC-9)
 Zulu
(UTC)
Morning civil twilight09:0618:06
Sunrise10:0819:08
Sunset15:4000:40
Evening civil twilight16:4201:42

Current date and time
Zulu (UTC)  13-Dec-2019 01:17:23
Local (UTC-9)  12-Dec-2019 16:17:23
 
METAR
PALH 
4nm SE 
130053Z 02004KT 10SM BKN070 01/M04 A2924 RMK AO2 SLP901 T00061039
PANC 
5nm S 
130053Z 33003KT 10SM FEW060 BKN120 BKN200 01/M03 A2922 RMK AO2 SLP898 T00111028
PAMR 
6nm E 
130053Z 00000KT 10SM BKN070 M01/M03 A2923 RMK AO2 SLP898 T10061033
PAED 
7nm E 
122356Z 36008KT 10SM FEW060 BKN110 02/M04 A2922 RMK AO2A SLP892 T00151040 10017 21016 58008 $
PAFR 
11nm E 
130058Z AUTO 00000KT 10SM OVC120 M02/M02 A2919 RMK AO2 SLP895 T10171021 $
PABV 
18nm NE 
130056Z AUTO 16003KT 10SM OVC110 M02/M02 A2924 RMK AO2 SLP908 T10171022 FZRANO
TAF
PANC 
5nm S 
121724Z 1218/1324 35005KT P6SM BKN100
PAED 
7nm E 
121900Z 1219/1401 VRB06KT 9999 SCT100 QNH2919INS TX01/1300Z TNM04/1219Z
NOTAMs
Click for the latest NOTAMs
NOTAMs are issued by the DoD/FAA and will open in a separate window not controlled by AirNav.

 

 
 

Would you like to see your business listed on this page?

 If your business provides an interesting product or service to pilots, flight crews, aircraft, or users of the Point Mackenzie Heliport, you should consider listing it here.  To start the listing process, click on the button below
 
Add a business
 

Other Pages about Point Mackenzie Heliport

Update a link
 
Copyright © AirNav, LLC. All rights reserved. Privacy Policy  Contact